createdAt,value
2022-12-29T00:05:24.021Z,99686.31
2022-12-29T00:15:39.888Z,99669.94
2022-12-29T00:26:07.129Z,99666.31
2022-12-29T00:36:14.039Z,99659.06
2022-12-29T00:46:20.262Z,99629.50
2022-12-29T00:56:23.461Z,99649.31
2022-12-29T01:06:28.003Z,99644.63
2022-12-29T01:16:31.095Z,99634.88
2022-12-29T01:26:35.831Z,99647.38
2022-12-29T01:36:38.938Z,99646.09
2022-12-29T01:46:48.636Z,99641.31
2022-12-29T01:56:53.238Z,99645.44
2022-12-29T02:07:01.606Z,99620.78
2022-12-29T02:17:15.854Z,99603.47
2022-12-29T02:27:50.847Z,99572.06
2022-12-29T02:38:05.451Z,99563.00
2022-12-29T02:48:17.306Z,99571.78
2022-12-29T02:58:25.026Z,99573.31
2022-12-29T03:08:37.014Z,99562.00
2022-12-29T03:18:49.670Z,99549.56
2022-12-29T03:28:58.531Z,99548.63
2022-12-29T03:39:13.150Z,99534.00
2022-12-29T03:49:16.490Z,99539.25
2022-12-29T03:59:22.954Z,99517.75
2022-12-29T04:09:26.289Z,99512.22
2022-12-29T04:19:30.963Z,99511.69
2022-12-29T04:29:34.254Z,99501.53
2022-12-29T04:39:48.989Z,99483.84
2022-12-29T04:49:53.178Z,99489.78
2022-12-29T05:00:14.180Z,99497.69
2022-12-29T05:10:17.386Z,99486.50
2022-12-29T05:20:23.332Z,99501.31
2022-12-29T05:30:27.080Z,99515.75
2022-12-29T05:40:31.617Z,99560.75
2022-12-29T05:50:38.863Z,99566.63
2022-12-29T06:00:49.651Z,99573.84
2022-12-29T06:10:52.935Z,99591.38
2022-12-29T06:21:01.887Z,99588.47
2022-12-29T06:31:05.108Z,99592.97
2022-12-29T06:41:09.668Z,99584.19
2022-12-29T06:51:12.685Z,99608.50
2022-12-29T07:01:16.932Z,99616.41
2022-12-29T07:11:20.345Z,99598.75
2022-12-29T07:21:25.023Z,99588.78
2022-12-29T07:31:28.089Z,99630.69
2022-12-29T07:41:32.581Z,99654.69
2022-12-29T07:51:38.345Z,99651.56
2022-12-29T08:01:42.888Z,99676.16
2022-12-29T08:11:46.211Z,99682.06
2022-12-29T08:21:50.473Z,99704.66
2022-12-29T08:31:53.607Z,99691.66
2022-12-29T08:41:58.072Z,99706.22
2022-12-29T08:52:01.437Z,99697.53
2022-12-29T09:02:06.125Z,99706.69
2022-12-29T09:12:09.409Z,99721.72
2022-12-29T09:22:13.901Z,99728.78
2022-12-29T09:32:18.720Z,99744.78
2022-12-29T09:42:29.674Z,99767.91
2022-12-29T09:52:37.686Z,99753.94
2022-12-29T10:02:45.932Z,99764.94
2022-12-29T10:13:08.672Z,99768.94
2022-12-29T10:23:28.356Z,99772.03
2022-12-29T10:33:37.317Z,99771.66
2022-12-29T10:43:46.024Z,99774.75
2022-12-29T10:53:53.465Z,99786.91
2022-12-29T11:04:05.229Z,99779.69
2022-12-29T11:14:14.618Z,99775.34
2022-12-29T11:24:25.312Z,99794.19
2022-12-29T11:34:33.928Z,99782.97
2022-12-29T11:44:44.619Z,99812.16
2022-12-29T11:54:47.775Z,99807.91
2022-12-29T12:04:56.351Z,99820.97
2022-12-29T12:15:01.820Z,99823.06
2022-12-29T12:25:32.001Z,99841.56
2022-12-29T12:35:45.285Z,99860.69
2022-12-29T12:46:00.699Z,99860.66
2022-12-29T12:56:23.565Z,99856.94
2022-12-29T13:06:40.113Z,99878.25
2022-12-29T13:16:50.772Z,99878.47
2022-12-29T13:27:01.637Z,99881.63
2022-12-29T13:37:10.895Z,99901.47
2022-12-29T13:47:23.581Z,99912.03
2022-12-29T13:57:37.276Z,99914.63
2022-12-29T14:07:42.432Z,99911.44
2022-12-29T14:17:46.348Z,99920.31
2022-12-29T14:27:59.571Z,99947.19
2022-12-29T14:38:16.902Z,99950.53
2022-12-29T14:48:35.730Z,99941.44
2022-12-29T14:58:48.513Z,99946.81
2022-12-29T15:08:57.843Z,99974.13
2022-12-29T15:19:01.862Z,100001.66
2022-12-29T15:29:06.328Z,99983.94
2022-12-29T15:39:20.368Z,99982.06
2022-12-29T15:49:31.851Z,99988.16
2022-12-29T15:59:36.155Z,100007.09
2022-12-29T16:09:45.427Z,100021.41
2022-12-29T16:19:51.354Z,100007.25
2022-12-29T16:29:57.515Z,100012.41
2022-12-29T16:40:30.857Z,100021.47
2022-12-29T16:50:37.511Z,100039.69
2022-12-29T17:00:40.600Z,100045.47
2022-12-29T17:11:02.814Z,100047.53
2022-12-29T17:21:06.031Z,100051.03
2022-12-29T17:31:12.335Z,100062.91
2022-12-29T17:41:16.655Z,100068.28
2022-12-29T17:51:22.321Z,100068.19
2022-12-29T18:01:31.006Z,100079.47
2022-12-29T18:11:40.549Z,100088.16
2022-12-29T18:21:45.713Z,100098.59
2022-12-29T18:31:50.248Z,100122.31
2022-12-29T18:41:53.417Z,100117.13
2022-12-29T18:51:57.942Z,100118.94
2022-12-29T19:02:01.017Z,100142.41
2022-12-29T19:12:06.420Z,100151.69
2022-12-29T19:22:09.598Z,100160.28
2022-12-29T19:32:14.423Z,100167.09
2022-12-29T19:42:17.433Z,100176.00
2022-12-29T19:52:21.689Z,100184.88
2022-12-29T20:02:26.674Z,100196.91
2022-12-29T20:12:31.104Z,100244.66
2022-12-29T20:22:34.295Z,100216.00
2022-12-29T20:32:38.595Z,100234.16
2022-12-29T20:42:41.808Z,100248.84
2022-12-29T20:52:47.051Z,100253.63
2022-12-29T21:02:50.570Z,100265.22
2022-12-29T21:12:55.029Z,100268.88
2022-12-29T21:22:59.455Z,100270.72
2022-12-29T21:33:03.757Z,100268.91
2022-12-29T21:43:07.769Z,100263.91
2022-12-29T21:53:12.098Z,100283.75
2022-12-29T22:03:32.890Z,100284.72
2022-12-29T22:13:39.743Z,100289.06
2022-12-29T22:23:43.152Z,100313.28
2022-12-29T22:33:47.693Z,100320.31
2022-12-29T22:43:50.910Z,100335.88
2022-12-29T22:53:55.425Z,100340.13
2022-12-29T23:04:27.119Z,100335.03
2022-12-29T23:14:22.907Z,100331.88
2022-12-29T23:24:26.320Z,100326.91
2022-12-29T23:34:30.696Z,100349.03
2022-12-29T23:44:33.992Z,100374.56
2022-12-29T23:54:38.356Z,100367.75
